Pagrindinis puslapis
METAR-TAF:

METAR-TAF

Oro uostai :

Trondheimas, Norvegija

platuma: 63-28N, ilguma: 010-56E, Aukštis: 1 m

Dabartinis oras

Ataskaita buvo paskelbta 2 valandos ir 9 minutes, ne 23:20 UTC
Vėjas 4 kt iš Pietryčių
Temperatūra 14°C
Drėgmė 47%
Slėgis 1000 hPa
Matomumas 10 km arba daugiau

METAR: ENVA 042320Z AUTO 13004KT 9999 NCD 14/03 Q1000 RMK WIND 670FT 16016KT

Laikas: 03:29 (01:29 UTC)

Prognozė

Prognozė galioja nuo 05 metu 00 UTC su 05 metu 24 UTC
Vėjas 8 kt iš Rytų/Pietryčių
Matomumas 10 km arba daugiau
nėra debesų žemiau 1500 m ir nėra kamuolinių lietaus debesų
Laikinai
nuo 05 metu 07 UTC su 05 metu 16 UTC
Vėjas 18 kt iš Pietryčių su gūsio iki 28 kt

TAF: ENVA 0500/0524 11008KT CAVOK TEMPO 0507/0516 14018G28KT

Orai ataskaitas ir orų prognozės (METAR, TAF).

turimą stotys yra geltonos ir raudonos taškus žemėlapyje.

Perkelti pele per norėdami pamatyti stoties vardą.

Tada spustelėkite, norėdami matyti oro stebėjimo ir prognozės.

Norėdami pakeisti žemėlapį: spustelėkite ant žalios mygtukų su juodo kryžiaus žemyn,; žalią mygtuką su brūkšneliu, jei norite nutolinti; arba žalių rodyklių gretimoms žemėlapius.


METAR-TAF: